createdAt,value
2023-05-01T00:01:19.862Z,100402.84
2023-05-01T00:06:22.137Z,100414.25
2023-05-01T00:11:25.203Z,100420.53
2023-05-01T00:16:27.472Z,100394.34
2023-05-01T00:21:29.899Z,100409.66
2023-05-01T00:26:32.514Z,100413.22
2023-05-01T00:31:34.975Z,100434.91
2023-05-01T00:36:37.278Z,100431.28
2023-05-01T00:41:39.748Z,100420.78
2023-05-01T00:46:42.817Z,100428.44
2023-05-01T00:51:49.564Z,100425.63
2023-05-01T00:56:52.878Z,100437.03
2023-05-01T01:01:56.743Z,100430.34
2023-05-01T01:07:22.035Z,100452.50
2023-05-01T01:12:38.421Z,100450.25
2023-05-01T01:17:56.960Z,100441.78
2023-05-01T01:23:33.208Z,100442.25
2023-05-01T01:28:46.624Z,100449.56
2023-05-01T01:33:56.454Z,100464.69
2023-05-01T01:39:15.082Z,100423.09
2023-05-01T01:44:23.516Z,100453.44
2023-05-01T01:49:28.236Z,100464.69
2023-05-01T01:54:41.257Z,100456.63
2023-05-01T01:59:44.634Z,100432.53
2023-05-01T02:04:49.890Z,100439.03
2023-05-01T02:09:54.108Z,100447.91
2023-05-01T02:14:58.281Z,100437.50
2023-05-01T02:20:01.213Z,100449.97
2023-05-01T02:25:03.824Z,100443.59
2023-05-01T02:30:07.223Z,100455.63
2023-05-01T02:35:10.855Z,100462.59
2023-05-01T02:40:15.371Z,100476.25
2023-05-01T02:45:22.951Z,100463.34
2023-05-01T02:50:27.177Z,100454.00
2023-05-01T02:55:29.705Z,100481.22
2023-05-01T03:00:31.967Z,100441.47
2023-05-01T03:05:34.137Z,100430.56
2023-05-01T03:10:36.248Z,100462.97
2023-05-01T03:15:39.222Z,100462.31
2023-05-01T03:20:41.891Z,100469.28
2023-05-01T03:25:44.056Z,100479.47
2023-05-01T03:30:46.359Z,100498.47
2023-05-01T03:35:48.747Z,100476.81
2023-05-01T03:40:50.920Z,100475.53
2023-05-01T03:45:53.199Z,100460.91
2023-05-01T03:50:55.324Z,100408.78
2023-05-01T03:55:58.068Z,100487.16
2023-05-01T04:01:01.257Z,100497.84
2023-05-01T04:06:03.700Z,100505.22
2023-05-01T04:11:06.964Z,100497.22
2023-05-01T04:16:09.287Z,100472.41
2023-05-01T04:21:11.521Z,100382.00
2023-05-01T04:26:13.943Z,100454.22
2023-05-01T04:31:16.335Z,100540.75
2023-05-01T04:36:18.972Z,100510.69
2023-05-01T04:41:21.955Z,100525.66
2023-05-01T04:46:24.341Z,100534.66
2023-05-01T04:51:26.682Z,100539.31
2023-05-01T04:56:28.862Z,100554.00
2023-05-01T05:01:31.006Z,100551.00
2023-05-01T05:06:33.283Z,100538.38
2023-05-01T05:11:35.601Z,100573.00
2023-05-01T05:16:38.422Z,100581.38
2023-05-01T05:21:40.702Z,100566.16
2023-05-01T05:26:42.980Z,100460.69
2023-05-01T05:31:47.863Z,100540.50
2023-05-01T05:36:50.342Z,100582.06
2023-05-01T05:41:54.213Z,100614.69
2023-05-01T05:46:56.551Z,100595.41
2023-05-01T05:51:58.682Z,100615.88
2023-05-01T05:57:00.927Z,100590.94
2023-05-01T06:02:03.178Z,100617.03
2023-05-01T06:07:06.636Z,100629.81
2023-05-01T06:12:08.794Z,100646.47
2023-05-01T06:17:11.060Z,100641.28
2023-05-01T06:22:13.191Z,100636.19
2023-05-01T06:27:15.477Z,100628.88
2023-05-01T06:32:19.242Z,100663.50
2023-05-01T06:37:21.843Z,100632.69
2023-05-01T06:42:24.403Z,100638.22
2023-05-01T06:47:26.663Z,100653.13
2023-05-01T06:52:28.933Z,100651.72
2023-05-01T06:57:31.445Z,100661.47
2023-05-01T07:02:33.764Z,100648.19
2023-05-01T07:07:37.519Z,100636.25
2023-05-01T07:12:41.181Z,100660.47
2023-05-01T07:17:43.759Z,100665.06
2023-05-01T07:22:46.611Z,100663.28
2023-05-01T07:27:49.141Z,100670.31
2023-05-01T07:32:51.863Z,100667.13
2023-05-01T07:37:54.665Z,100677.84
2023-05-01T07:42:57.513Z,100653.69
2023-05-01T07:48:00.389Z,100688.19
2023-05-01T07:53:02.889Z,100696.97
2023-05-01T07:58:18.197Z,100604.75
2023-05-01T08:03:22.308Z,100693.84
2023-05-01T08:08:33.136Z,100651.88
2023-05-01T08:13:35.758Z,100566.38
2023-05-01T08:18:38.144Z,100655.09
2023-05-01T08:23:40.437Z,100632.25
2023-05-01T08:28:42.693Z,100627.84
2023-05-01T08:33:48.997Z,100585.97
2023-05-01T08:38:53.779Z,100659.59
2023-05-01T08:44:01.821Z,100654.47
2023-05-01T08:49:06.033Z,100635.00
2023-05-01T08:54:09.978Z,100631.78
2023-05-01T08:59:15.044Z,100675.38
2023-05-01T09:04:18.422Z,100613.53
2023-05-01T09:09:20.810Z,100598.19
2023-05-01T09:14:26.319Z,100596.03
2023-05-01T09:19:35.172Z,100544.50
2023-05-01T09:24:53.810Z,100694.91
2023-05-01T09:29:59.307Z,100656.47
2023-05-01T09:35:15.147Z,100701.81
2023-05-01T09:40:17.544Z,100568.19
2023-05-01T09:45:20.956Z,100563.13
2023-05-01T09:50:37.455Z,100601.94
2023-05-01T09:55:41.844Z,100598.19
2023-05-01T10:00:50.528Z,100547.38
2023-05-01T10:06:04.551Z,100526.84
2023-05-01T10:11:07.656Z,100544.44
2023-05-01T10:16:30.282Z,100574.97
2023-05-01T10:21:36.823Z,100659.25
2023-05-01T10:26:40.082Z,100511.25
2023-05-01T10:31:42.749Z,100654.88
2023-05-01T10:37:07.630Z,100538.44
2023-05-01T10:42:15.235Z,100586.66
2023-05-01T10:47:30.309Z,100628.59
2023-05-01T10:53:14.930Z,100543.03
2023-05-01T10:58:41.223Z,100551.84
2023-05-01T11:03:45.725Z,100532.63
2023-05-01T11:08:48.262Z,100619.00
2023-05-01T11:14:02.632Z,100552.97
2023-05-01T11:19:10.242Z,100572.69
2023-05-01T11:24:25.807Z,100531.34
2023-05-01T11:29:40.766Z,100545.56
2023-05-01T11:34:43.543Z,100615.16
2023-05-01T11:39:53.150Z,100556.81
2023-05-01T11:45:16.720Z,100526.69
2023-05-01T11:51:03.965Z,100523.88
2023-05-01T12:01:45.095Z,100534.06
2023-05-01T12:06:48.462Z,100517.09
2023-05-01T12:11:54.615Z,100567.75
2023-05-01T12:16:57.531Z,100508.34
2023-05-01T12:22:09.797Z,100652.94
2023-05-01T12:27:12.185Z,100498.66
2023-05-01T12:32:35.608Z,100513.50
2023-05-01T12:37:42.641Z,100516.44
2023-05-01T12:42:45.351Z,100488.72
2023-05-01T12:47:52.585Z,100543.34
2023-05-01T12:53:14.306Z,100516.50
2023-05-01T12:58:22.222Z,100614.66
2023-05-01T13:03:41.291Z,100547.19
2023-05-01T13:08:43.968Z,100495.00
2023-05-01T13:13:47.811Z,100486.53
2023-05-01T13:18:52.040Z,100533.97
2023-05-01T13:24:05.695Z,100510.41
2023-05-01T13:29:17.952Z,100476.97
2023-05-01T13:34:32.141Z,100557.16
2023-05-01T13:39:37.496Z,100483.91
2023-05-01T13:44:56.862Z,100551.84
2023-05-01T13:50:01.403Z,100576.94
2023-05-01T13:55:09.113Z,100540.28
2023-05-01T14:00:19.687Z,100555.81
2023-05-01T14:05:29.495Z,100536.97
2023-05-01T14:10:32.540Z,100590.44
2023-05-01T14:15:35.152Z,100574.56
2023-05-01T14:20:37.797Z,100555.41
2023-05-01T14:25:40.885Z,100608.31
2023-05-01T14:30:45.117Z,100635.09
2023-05-01T14:35:52.868Z,100610.47
2023-05-01T14:40:55.330Z,100636.00
2023-05-01T14:45:59.974Z,100580.63
2023-05-01T14:51:15.076Z,100630.81
2023-05-01T14:56:23.063Z,100605.84
2023-05-01T15:01:25.775Z,100527.41
2023-05-01T15:06:29.343Z,100676.53
2023-05-01T15:11:32.215Z,100528.78
2023-05-01T15:16:34.747Z,100660.84
2023-05-01T15:21:37.530Z,100668.78
2023-05-01T15:26:43.205Z,100602.91
2023-05-01T15:31:45.816Z,100515.41
2023-05-01T15:36:49.907Z,100555.22
2023-05-01T15:41:53.209Z,100569.72
2023-05-01T15:47:02.496Z,100673.44
2023-05-01T15:52:05.464Z,100555.53
2023-05-01T15:57:20.036Z,100582.88
2023-05-01T16:02:23.021Z,100576.13
2023-05-01T16:07:38.918Z,100628.34
2023-05-01T16:12:44.263Z,100566.16
2023-05-01T16:17:47.267Z,100573.63
2023-05-01T16:22:51.975Z,100595.06
2023-05-01T16:27:57.118Z,100613.03
2023-05-01T16:33:09.306Z,100615.38
2023-05-01T16:38:11.903Z,100721.84
2023-05-01T16:43:14.760Z,100718.22
2023-05-01T16:48:26.782Z,100570.28
2023-05-01T16:53:39.732Z,100579.75
2023-05-01T16:58:49.332Z,100616.94
2023-05-01T17:03:52.299Z,100626.34
2023-05-01T17:08:59.971Z,100688.59
2023-05-01T17:14:09.800Z,100632.50
2023-05-01T17:19:12.430Z,100692.78
2023-05-01T17:24:14.834Z,100692.38
2023-05-01T17:29:17.332Z,100757.31
2023-05-01T17:34:22.808Z,100624.22
2023-05-01T17:39:28.150Z,100653.34
2023-05-01T17:44:31.104Z,100709.13
2023-05-01T17:49:54.370Z,100671.56
2023-05-01T17:54:56.953Z,100751.28
2023-05-01T18:00:01.331Z,100795.84
2023-05-01T18:05:17.925Z,100653.31
2023-05-01T18:15:25.627Z,100647.22
2023-05-01T18:20:31.238Z,100822.59
2023-05-01T18:25:33.588Z,100818.13
2023-05-01T18:30:54.414Z,100749.66
2023-05-01T18:36:07.261Z,100688.91
2023-05-01T18:47:19.039Z,100758.53
2023-05-01T18:58:17.290Z,100775.19
2023-05-01T19:03:20.275Z,100772.22
2023-05-01T19:08:33.528Z,100761.03
2023-05-01T19:14:08.709Z,100872.13
2023-05-01T19:19:11.194Z,100690.50
2023-05-01T19:24:21.369Z,100782.97
2023-05-01T19:29:53.064Z,100740.22
2023-05-01T19:40:20.818Z,100867.88
2023-05-01T19:45:25.585Z,100811.88
2023-05-01T19:50:31.334Z,100740.84
2023-05-01T19:55:35.539Z,100712.78
2023-05-01T20:00:38.046Z,100793.75
2023-05-01T20:05:43.833Z,100897.81
2023-05-01T20:10:46.749Z,100900.41
2023-05-01T20:15:54.260Z,100807.94
2023-05-01T20:20:56.686Z,100844.41
2023-05-01T20:26:00.980Z,100785.97
2023-05-01T20:31:06.190Z,100731.56
2023-05-01T20:36:08.937Z,100808.75
2023-05-01T20:41:11.714Z,100867.41
2023-05-01T20:46:17.237Z,100894.41
2023-05-01T20:51:19.744Z,100795.69
2023-05-01T20:56:26.856Z,100890.25
2023-05-01T21:01:31.893Z,100834.16
2023-05-01T21:06:36.648Z,100810.00
2023-05-01T21:11:42.073Z,100754.50
2023-05-01T21:16:45.652Z,100846.31
2023-05-01T21:21:48.188Z,100817.13
2023-05-01T21:26:50.953Z,100878.19
2023-05-01T21:31:53.570Z,100749.25
2023-05-01T21:36:56.139Z,100911.31
2023-05-01T21:41:58.995Z,100798.84
2023-05-01T21:47:02.167Z,100852.56
2023-05-01T21:52:04.624Z,100813.72
2023-05-01T21:57:08.502Z,100892.19
2023-05-01T22:02:12.623Z,100806.19
2023-05-01T22:07:17.345Z,100891.88
2023-05-01T22:12:22.129Z,100824.44
2023-05-01T22:17:24.724Z,100871.88
2023-05-01T22:22:30.571Z,100838.06
2023-05-01T22:27:33.912Z,100875.53
2023-05-01T22:32:36.598Z,100846.75
2023-05-01T22:37:38.881Z,100784.97
2023-05-01T22:42:41.547Z,100736.78
2023-05-01T22:47:43.888Z,100902.47
2023-05-01T22:52:46.640Z,100921.16
2023-05-01T22:57:49.099Z,100794.97
2023-05-01T23:02:51.663Z,100771.25
2023-05-01T23:07:54.164Z,100864.19
2023-05-01T23:12:56.802Z,100817.28
2023-05-01T23:17:59.420Z,100783.44
2023-05-01T23:23:05.805Z,100730.88
2023-05-01T23:28:08.918Z,100875.22
2023-05-01T23:33:14.657Z,100821.69
2023-05-01T23:38:17.400Z,100747.28
2023-05-01T23:43:20.626Z,100891.56
2023-05-01T23:48:23.056Z,100829.16
2023-05-01T23:53:25.641Z,100861.00
2023-05-01T23:58:28.003Z,100797.91
